Time;durP1;ratioP1;P1;durP2;ratioP2;P2;SDS_P1;SDS_P2;PMS_P1;PMS_P2;Temp;Humidity;BMP_temperature;BMP_pressure;BME280_temperature;BME280_humidity;BME280_pressure;Samples;Min_cycle;Max_cycle;Signal;HPM_P1;HPM_P2
2023/01/08 00:01:08;;;;;;;2.13;1.90;;;10.00;99.90;;;;;;5076635;28;20495;-77
2023/01/08 00:03:34;;;;;;;3.25;2.40;;;10.10;99.90;;;;;;5059214;28;20048;-76
2023/01/08 00:06:02;;;;;;;3.13;2.85;;;10.00;99.90;;;;;;5077064;28;20373;-76
2023/01/08 00:08:29;;;;;;;3.22;2.13;;;10.00;99.90;;;;;;5076669;28;20037;-76
2023/01/08 00:10:55;;;;;;;3.50;2.45;;;10.00;99.90;;;;;;5076760;28;20465;-76
2023/01/08 00:13:20;;;;;;;2.47;2.28;;;10.00;99.90;;;;;;5059293;28;20040;-76
2023/01/08 00:15:46;;;;;;;4.13;2.72;;;9.90;99.90;;;;;;5076981;28;20576;-76
2023/01/08 00:18:12;;;;;;;3.22;2.42;;;9.90;99.90;;;;;;5076213;28;20123;-77
2023/01/08 00:20:44;;;;;;;4.28;3.13;;;9.90;99.90;;;;;;5076877;28;20070;-76
2023/01/08 00:23:12;;;;;;;3.00;2.67;;;9.90;99.90;;;;;;5076539;28;20516;-77
2023/01/08 00:25:37;;;;;;;2.85;2.65;;;9.80;99.90;;;;;;5076505;28;20481;-76
2023/01/08 00:28:03;;;;;;;2.97;2.22;;;9.80;99.90;;;;;;5076897;28;20041;-76
2023/01/08 00:30:29;;;;;;;4.00;2.17;;;9.90;99.90;;;;;;5076022;28;20059;-77
2023/01/08 00:32:55;;;;;;;3.78;2.63;;;9.90;99.90;;;;;;5076440;28;20056;-77
2023/01/08 00:35:21;;;;;;;4.38;2.75;;;9.90;99.90;;;;;;5076147;28;20051;-76
2023/01/08 00:37:50;;;;;;;3.20;2.30;;;9.90;99.90;;;;;;5059006;28;20135;-77
2023/01/08 00:40:16;;;;;;;3.72;2.25;;;9.90;99.90;;;;;;5076216;28;20040;-77
2023/01/08 00:42:42;;;;;;;2.22;2.03;;;9.90;99.90;;;;;;5076242;28;20082;-76
2023/01/08 00:45:08;;;;;;;2.30;2.10;;;9.90;99.90;;;;;;5076883;28;20171;-77
2023/01/08 00:47:34;;;;;;;2.50;2.13;;;9.90;99.90;;;;;;5059097;28;20052;-76
2023/01/08 00:49:59;;;;;;;2.70;2.50;;;10.00;99.90;;;;;;5058472;28;20041;-78
2023/01/08 00:52:25;;;;;;;2.92;2.40;;;9.90;99.90;;;;;;5076730;28;20150;-76
2023/01/08 00:54:51;;;;;;;2.80;2.60;;;10.00;99.90;;;;;;5058988;28;20045;-77
2023/01/08 00:57:17;;;;;;;2.63;2.42;;;10.00;99.90;;;;;;5058712;28;20358;-76
2023/01/08 00:59:42;;;;;;;2.75;2.17;;;10.00;99.90;;;;;;5075848;28;20118;-77
2023/01/08 01:02:08;;;;;;;4.43;2.33;;;10.00;99.90;;;;;;5059088;28;20052;-76
2023/01/08 01:04:34;;;;;;;3.30;2.28;;;10.00;99.90;;;;;;5075705;28;20052;-76
2023/01/08 01:07:00;;;;;;;2.53;2.20;;;10.00;99.90;;;;;;5058131;28;20041;-77
2023/01/08 01:09:26;;;;;;;3.67;2.67;;;10.00;99.90;;;;;;5058588;28;20040;-77
2023/01/08 01:11:51;;;;;;;4.13;2.50;;;10.10;99.90;;;;;;5075081;28;20033;-77
2023/01/08 01:14:17;;;;;;;3.45;2.75;;;10.00;99.90;;;;;;5075502;28;20051;-77
2023/01/08 01:16:43;;;;;;;3.50;2.83;;;10.00;99.90;;;;;;5075828;28;20036;-77
2023/01/08 01:19:09;;;;;;;4.35;2.70;;;10.00;99.90;;;;;;5075372;28;20036;-77
2023/01/08 01:21:35;;;;;;;2.63;2.42;;;10.00;99.90;;;;;;5075125;28;20607;-77
2023/01/08 01:24:03;;;;;;;3.53;3.22;;;10.00;99.90;;;;;;5075865;28;20072;-77
2023/01/08 01:26:30;;;;;;;2.83;2.63;;;10.00;99.90;;;;;;5074317;28;20048;-77
2023/01/08 01:28:57;;;;;;;3.50;2.67;;;9.90;99.90;;;;;;5074078;28;20120;-77
2023/01/08 01:31:25;;;;;;;3.03;2.75;;;9.90;99.90;;;;;;5074772;28;20045;-77
2023/01/08 01:33:51;;;;;;;3.63;2.70;;;9.90;99.90;;;;;;5075900;28;20119;-77
2023/01/08 01:36:18;;;;;;;2.80;2.55;;;9.80;99.90;;;;;;5057611;28;20568;-77
2023/01/08 01:38:46;;;;;;;3.40;2.33;;;9.80;99.90;;;;;;5075050;28;20041;-77
2023/01/08 01:41:22;;;;;;;3.03;2.80;;;9.80;99.90;;;;;;5074062;28;20423;-77
2023/01/08 01:43:49;;;;;;;3.63;2.80;;;9.80;99.90;;;;;;5075616;28;20036;-77
2023/01/08 01:46:33;;;;;;;3.90;2.42;;;9.80;99.90;;;;;;5057665;28;20048;-78
2023/01/08 01:49:04;;;;;;;2.50;2.30;;;9.80;99.90;;;;;;5058081;28;20044;-77
2023/01/08 01:51:33;;;;;;;3.03;2.25;;;9.80;99.90;;;;;;5074870;28;20036;-78
2023/01/08 01:54:01;;;;;;;5.07;2.75;;;9.80;99.90;;;;;;5074412;28;20489;-77
2023/01/08 01:56:28;;;;;;;2.38;2.10;;;9.80;99.90;;;;;;5074800;28;20404;-78
2023/01/08 01:58:54;;;;;;;3.70;2.13;;;9.80;99.90;;;;;;5074622;28;20047;-77
2023/01/08 02:01:20;;;;;;;2.75;1.55;;;9.80;99.90;;;;;;5074583;28;20032;-76
2023/01/08 02:03:46;;;;;;;2.55;1.83;;;9.80;99.90;;;;;;5074745;28;20125;-77
2023/01/08 02:06:27;;;;;;;3.97;2.30;;;9.70;99.90;;;;;;5074595;28;20084;-77
2023/01/08 02:09:03;;;;;;;2.65;1.67;;;9.70;99.90;;;;;;5074689;28;20036;-77
2023/01/08 02:11:44;;;;;;;3.80;1.75;;;9.70;99.90;;;;;;5074447;28;20043;-77
2023/01/08 02:14:36;;;;;;;2.13;1.77;;;9.60;99.90;;;;;;5075229;28;20090;-77
2023/01/08 02:17:09;;;;;;;3.38;1.90;;;9.60;99.90;;;;;;5074923;28;20346;-76
2023/01/08 02:20:05;;;;;;;2.50;1.60;;;9.60;99.90;;;;;;5074612;28;20036;-77
2023/01/08 02:22:54;;;;;;;2.42;1.65;;;9.60;99.90;;;;;;5074873;28;20049;-79
2023/01/08 02:25:19;;;;;;;3.63;1.50;;;9.50;99.90;;;;;;5057363;28;20047;-78
2023/01/08 02:27:47;;;;;;;4.07;1.90;;;9.50;99.90;;;;;;5060511;28;20128;-77
2023/01/08 02:30:13;;;;;;;3.30;1.85;;;9.50;99.90;;;;;;5075232;28;20068;-77
2023/01/08 02:32:41;;;;;;;7.22;1.90;;;9.40;99.90;;;;;;5093838;28;20048;-77
2023/01/08 02:35:09;;;;;;;4.28;1.55;;;9.40;99.90;;;;;;5075609;28;20044;-78
2023/01/08 02:37:36;;;;;;;4.60;1.80;;;9.30;99.90;;;;;;5074283;28;20100;-77
2023/01/08 02:40:25;;;;;;;5.20;2.00;;;9.30;99.90;;;;;;5091552;28;20063;-77
2023/01/08 02:42:57;;;;;;;4.95;1.70;;;9.30;99.90;;;;;;5092338;28;20048;-78
2023/01/08 02:45:47;;;;;;;4.50;2.05;;;9.30;99.90;;;;;;5097221;28;20037;-77
2023/01/08 02:48:34;;;;;;;4.82;2.10;;;9.30;99.90;;;;;;5094985;28;20066;-77
2023/01/08 02:51:26;;;;;;;4.38;2.67;;;9.30;99.90;;;;;;5093159;28;20041;-77
2023/01/08 02:53:58;;;;;;;3.38;1.73;;;9.20;99.90;;;;;;5089243;28;20066;-75
2023/01/08 02:56:30;;;;;;;4.25;1.88;;;9.20;99.90;;;;;;5058490;28;20044;-77
2023/01/08 02:58:58;;;;;;;4.18;1.75;;;9.20;99.90;;;;;;5075367;28;20036;-77
2023/01/08 03:01:26;;;;;;;2.00;1.60;;;9.10;99.90;;;;;;5074873;28;20048;-78
2023/01/08 03:03:57;;;;;;;8.82;2.67;;;9.10;99.90;;;;;;5056288;28;20051;-76
2023/01/08 03:06:25;;;;;;;6.40;2.15;;;9.10;99.90;;;;;;5074083;28;20040;-76
2023/01/08 03:08:52;;;;;;;2.13;1.55;;;9.10;99.90;;;;;;5074382;28;20055;-77
2023/01/08 03:11:23;;;;;;;9.88;2.47;;;9.10;99.90;;;;;;5073948;28;20123;-77
2023/01/08 03:13:55;;;;;;;3.65;2.00;;;9.10;99.90;;;;;;5073543;28;20450;-77
2023/01/08 03:16:44;;;;;;;4.97;2.05;;;9.10;99.90;;;;;;5073860;28;20045;-77
2023/01/08 03:19:45;;;;;;;6.90;2.00;;;9.00;99.90;;;;;;5074491;28;20045;-76
2023/01/08 03:22:14;;;;;;;5.60;2.20;;;9.00;99.90;;;;;;5073294;28;20054;-76
2023/01/08 03:24:42;;;;;;;4.40;2.15;;;9.00;99.90;;;;;;5073790;28;20405;-76
2023/01/08 03:27:12;;;;;;;8.48;2.50;;;9.00;99.90;;;;;;5073516;28;20128;-77
2023/01/08 03:29:39;;;;;;;4.80;2.15;;;9.00;99.90;;;;;;5056019;28;20058;-76
2023/01/08 03:32:11;;;;;;;5.97;2.10;;;8.90;99.90;;;;;;5073661;28;20052;-76
2023/01/08 03:34:40;;;;;;;3.72;2.00;;;9.00;99.90;;;;;;5056177;28;20457;-76
2023/01/08 03:37:08;;;;;;;4.90;2.30;;;8.90;99.90;;;;;;5073685;28;20056;-76
2023/01/08 03:39:44;;;;;;;5.22;2.00;;;8.90;99.90;;;;;;5073665;28;20075;-77
2023/01/08 03:42:12;;;;;;;14.00;2.10;;;8.90;99.90;;;;;;5073691;28;20044;-76
2023/01/08 03:44:38;;;;;;;3.75;2.08;;;8.90;99.90;;;;;;5073511;28;20044;-76
2023/01/08 03:47:07;;;;;;;4.03;1.80;;;8.90;99.90;;;;;;5074031;28;20048;-76
2023/01/08 03:49:34;;;;;;;3.10;1.50;;;8.90;99.90;;;;;;5073437;28;20045;-76
2023/01/08 03:52:00;;;;;;;3.03;1.92;;;8.80;99.90;;;;;;5072543;28;20088;-75
2023/01/08 03:54:30;;;;;;;4.07;2.30;;;8.80;99.90;;;;;;5076885;28;20094;-76
2023/01/08 03:56:56;;;;;;;8.23;2.00;;;8.80;99.90;;;;;;5077589;28;20128;-77
2023/01/08 03:59:22;;;;;;;2.53;2.20;;;8.80;99.90;;;;;;5060351;28;20086;-77
2023/01/08 04:01:48;;;;;;;4.18;1.92;;;8.80;99.90;;;;;;5076997;28;20043;-77
2023/01/08 04:04:13;;;;;;;5.20;1.98;;;8.80;99.90;;;;;;5077451;28;20045;-76
2023/01/08 04:06:39;;;;;;;4.32;2.00;;;8.90;99.90;;;;;;5077776;28;20043;-76
2023/01/08 04:09:05;;;;;;;3.35;2.05;;;8.90;99.90;;;;;;5076836;28;20036;-76
2023/01/08 04:11:31;;;;;;;2.78;2.08;;;8.90;99.90;;;;;;5077124;28;20354;-76
2023/01/08 04:13:57;;;;;;;2.47;2.00;;;8.90;99.90;;;;;;5076770;28;20047;-77
2023/01/08 04:16:23;;;;;;;6.28;2.85;;;9.00;99.90;;;;;;5042028;28;20052;-77
2023/01/08 04:18:49;;;;;;;8.80;2.65;;;9.00;99.90;;;;;;5076926;28;20046;-76
2023/01/08 04:21:14;;;;;;;4.95;2.30;;;9.00;99.90;;;;;;5059288;28;20377;-77
2023/01/08 04:23:40;;;;;;;3.47;2.58;;;9.00;99.90;;;;;;5077147;28;20037;-76
2023/01/08 04:26:07;;;;;;;4.38;2.33;;;9.00;99.90;;;;;;5058944;28;20127;-78
2023/01/08 04:28:33;;;;;;;3.10;1.92;;;9.00;99.90;;;;;;5076159;28;20136;-77
2023/01/08 04:30:59;;;;;;;6.47;2.17;;;9.00;99.90;;;;;;5077255;28;20094;-76
2023/01/08 04:33:24;;;;;;;3.47;2.05;;;8.90;99.90;;;;;;5058728;28;20040;-77
2023/01/08 04:35:50;;;;;;;3.95;2.30;;;9.00;99.90;;;;;;5076795;28;20072;-76
2023/01/08 04:38:16;;;;;;;3.10;2.40;;;9.00;99.90;;;;;;5077001;28;20381;-76
2023/01/08 04:40:42;;;;;;;2.85;2.40;;;9.00;99.90;;;;;;5076304;28;20040;-76
2023/01/08 04:43:08;;;;;;;5.47;2.72;;;9.00;99.90;;;;;;5076245;28;20127;-77
2023/01/08 04:45:34;;;;;;;7.30;3.30;;;9.10;99.90;;;;;;5076225;28;20178;-77
2023/01/08 04:48:00;;;;;;;5.03;2.72;;;9.10;99.90;;;;;;5076609;28;20087;-77
2023/01/08 04:50:26;;;;;;;3.95;3.25;;;9.10;99.90;;;;;;5076368;28;20116;-77
2023/01/08 04:52:52;;;;;;;3.05;2.15;;;9.20;99.90;;;;;;5075954;28;20039;-76
2023/01/08 04:55:18;;;;;;;5.78;2.42;;;9.10;99.90;;;;;;5075944;28;20045;-77
2023/01/08 04:57:44;;;;;;;5.95;2.38;;;9.20;99.90;;;;;;5076072;28;20067;-77
2023/01/08 05:00:11;;;;;;;5.47;2.28;;;9.20;99.90;;;;;;5075856;28;20040;-77
2023/01/08 05:02:37;;;;;;;8.30;2.20;;;9.20;99.90;;;;;;5075849;28;20045;-77
2023/01/08 05:05:02;;;;;;;3.92;2.13;;;9.20;99.90;;;;;;5074631;28;20040;-78
2023/01/08 05:07:28;;;;;;;3.05;2.10;;;9.30;99.90;;;;;;5075798;28;20048;-78
2023/01/08 05:09:54;;;;;;;3.03;2.45;;;9.30;99.90;;;;;;5076320;28;20047;-77
2023/01/08 05:12:19;;;;;;;4.38;2.55;;;9.20;99.90;;;;;;5076123;28;20040;-77
2023/01/08 05:14:45;;;;;;;2.90;2.03;;;9.30;99.90;;;;;;5075621;28;20044;-77
2023/01/08 05:17:11;;;;;;;6.47;2.00;;;9.30;99.90;;;;;;5075517;28;20040;-77
2023/01/08 05:19:36;;;;;;;2.13;1.83;;;9.20;99.90;;;;;;5075637;28;20029;-77
2023/01/08 05:22:02;;;;;;;6.35;2.67;;;9.20;99.90;;;;;;5076056;28;20488;-77
2023/01/08 05:24:28;;;;;;;4.15;1.95;;;9.20;99.90;;;;;;5075420;28;20146;-77
2023/01/08 05:26:53;;;;;;;3.10;1.63;;;9.20;99.90;;;;;;5075975;28;20123;-77
2023/01/08 05:29:19;;;;;;;3.25;1.85;;;9.20;99.90;;;;;;5075224;28;20142;-76
2023/01/08 05:31:45;;;;;;;2.22;1.67;;;9.20;99.90;;;;;;5076015;28;20048;-77
2023/01/08 05:34:11;;;;;;;2.42;1.90;;;9.20;99.90;;;;;;5058013;28;20045;-77
2023/01/08 05:36:37;;;;;;;5.03;2.72;;;9.20;99.90;;;;;;5057569;28;20044;-77
2023/01/08 05:39:03;;;;;;;4.45;1.90;;;9.10;99.90;;;;;;5075120;28;20488;-77
2023/01/08 05:41:29;;;;;;;3.80;1.80;;;9.10;99.90;;;;;;5075073;28;20043;-78
2023/01/08 05:43:54;;;;;;;2.10;1.50;;;9.10;99.90;;;;;;5075883;28;20048;-77
2023/01/08 05:46:20;;;;;;;1.80;1.60;;;9.10;99.90;;;;;;5075343;28;20037;-77
2023/01/08 05:48:46;;;;;;;1.77;1.63;;;9.10;99.90;;;;;;5075422;28;20476;-77
2023/01/08 05:51:12;;;;;;;2.03;1.60;;;9.10;99.90;;;;;;5074956;28;20040;-77
2023/01/08 05:53:40;;;;;;;3.28;1.40;;;9.10;99.90;;;;;;5074912;28;20040;-77
2023/01/08 05:56:09;;;;;;;2.65;1.50;;;9.00;99.90;;;;;;5074901;28;20063;-77
2023/01/08 05:58:35;;;;;;;5.45;2.28;;;9.00;99.90;;;;;;5074680;28;20039;-77
2023/01/08 06:01:06;;;;;;;2.05;1.80;;;9.00;99.90;;;;;;5074708;28;20461;-77
2023/01/08 06:03:32;;;;;;;2.28;1.80;;;9.00;99.90;;;;;;5075604;28;20083;-77
2023/01/08 06:06:03;;;;;;;3.28;1.63;;;9.00;99.90;;;;;;5074848;28;20444;-77
2023/01/08 06:08:29;;;;;;;2.67;1.63;;;9.00;99.90;;;;;;5056864;28;20139;-77
2023/01/08 06:11:00;;;;;;;2.05;1.40;;;9.00;99.90;;;;;;5074534;28;20072;-77
2023/01/08 06:13:26;;;;;;;2.17;1.60;;;9.00;99.90;;;;;;5075282;28;20051;-77
2023/01/08 06:15:52;;;;;;;3.22;1.75;;;9.00;99.90;;;;;;5074385;28;20067;-77
2023/01/08 06:18:18;;;;;;;2.28;2.03;;;9.00;99.90;;;;;;5074205;28;20040;-77
2023/01/08 06:20:43;;;;;;;1.85;1.75;;;9.00;99.90;;;;;;5074366;28;20048;-77
2023/01/08 06:23:09;;;;;;;3.50;2.13;;;9.00;99.90;;;;;;5056853;28;20041;-77
2023/01/08 06:25:35;;;;;;;4.93;2.22;;;9.00;99.90;;;;;;5074523;28;20381;-77
2023/01/08 06:28:02;;;;;;;4.13;2.90;;;9.00;99.90;;;;;;5056248;28;20036;-77
2023/01/08 06:30:28;;;;;;;2.55;2.17;;;9.00;99.90;;;;;;5072734;28;20056;-77
2023/01/08 06:32:57;;;;;;;4.85;2.22;;;9.00;99.90;;;;;;5074633;28;20125;-77
2023/01/08 06:35:24;;;;;;;3.30;2.35;;;9.00;99.90;;;;;;5074141;28;20083;-76
2023/01/08 06:37:50;;;;;;;5.68;2.30;;;9.00;99.90;;;;;;5056371;28;20044;-77
2023/01/08 06:40:15;;;;;;;3.25;2.28;;;9.00;99.90;;;;;;5074094;28;20078;-77
2023/01/08 06:42:42;;;;;;;2.92;2.40;;;9.00;99.90;;;;;;5074232;28;20133;-77
2023/01/08 06:45:09;;;;;;;4.35;2.22;;;9.00;99.90;;;;;;5057174;28;20044;-78
2023/01/08 06:47:34;;;;;;;2.22;1.98;;;9.00;99.90;;;;;;5073989;28;20044;-78
2023/01/08 06:50:00;;;;;;;3.53;2.08;;;8.90;99.90;;;;;;5073811;28;20132;-78
2023/01/08 06:52:26;;;;;;;2.05;1.88;;;8.90;99.90;;;;;;5074014;28;20117;-78
2023/01/08 06:54:52;;;;;;;4.80;2.08;;;8.90;99.90;;;;;;5073850;28;20484;-77
2023/01/08 06:57:17;;;;;;;2.90;2.08;;;8.90;99.90;;;;;;5074181;28;20123;-76
2023/01/08 06:59:43;;;;;;;3.05;2.10;;;8.80;99.90;;;;;;5074046;28;20033;-76
2023/01/08 07:02:16;;;;;;;3.70;2.13;;;8.80;99.90;;;;;;5074159;28;20465;-77
2023/01/08 07:04:42;;;;;;;2.28;2.05;;;8.80;99.90;;;;;;5073740;28;20044;-77
2023/01/08 07:07:12;;;;;;;5.47;2.30;;;8.80;99.90;;;;;;5074609;28;20181;-77
2023/01/08 07:09:38;;;;;;;4.53;2.20;;;8.80;99.90;;;;;;5055870;28;20040;-77
2023/01/08 07:12:03;;;;;;;1.95;1.75;;;8.70;99.90;;;;;;5073677;28;20042;-77
2023/01/08 07:14:29;;;;;;;3.38;3.03;;;8.70;99.90;;;;;;5074311;28;20044;-77
2023/01/08 07:16:55;;;;;;;1.52;1.42;;;8.80;99.90;;;;;;5073641;28;20079;-77
2023/01/08 07:19:20;;;;;;;2.80;1.65;;;8.70;99.90;;;;;;5073697;28;20037;-77
2023/01/08 07:21:46;;;;;;;5.05;1.90;;;8.70;99.90;;;;;;5074035;28;20090;-77
2023/01/08 07:24:12;;;;;;;6.72;1.98;;;8.70;99.90;;;;;;5073735;28;20469;-78
2023/01/08 07:26:38;;;;;;;3.38;2.00;;;8.60;99.90;;;;;;5073374;28;20485;-78
2023/01/08 07:29:05;;;;;;;2.63;1.58;;;8.60;99.90;;;;;;5075188;28;20419;-78
2023/01/08 07:31:31;;;;;;;5.97;1.83;;;8.50;99.90;;;;;;5078668;28;20063;-78
2023/01/08 07:33:57;;;;;;;5.30;2.88;;;8.50;99.90;;;;;;5077868;28;20086;-78
2023/01/08 07:36:23;;;;;;;4.30;1.60;;;8.50;99.90;;;;;;5077622;28;20461;-78
2023/01/08 07:38:49;;;;;;;3.97;2.22;;;8.50;99.90;;;;;;5077399;28;20066;-77
2023/01/08 07:41:16;;;;;;;2.88;1.92;;;8.40;99.90;;;;;;5077654;28;20048;-77
2023/01/08 07:43:41;;;;;;;7.38;1.83;;;8.40;99.90;;;;;;5077623;28;20111;-78
2023/01/08 07:46:07;;;;;;;2.83;1.60;;;8.30;99.90;;;;;;5059602;28;20449;-77
2023/01/08 07:48:33;;;;;;;2.55;1.80;;;8.20;99.90;;;;;;5076513;28;20138;-78
2023/01/08 07:51:06;;;;;;;4.20;1.80;;;8.30;99.90;;;;;;5077180;28;20041;-78
2023/01/08 07:53:32;;;;;;;3.88;2.03;;;8.30;99.90;;;;;;5059516;28;20384;-77
2023/01/08 07:56:04;;;;;;;5.15;2.40;;;7.90;99.90;;;;;;5077598;28;20048;-78
2023/01/08 07:58:30;;;;;;;5.50;2.58;;;8.30;99.90;;;;;;5077123;28;20123;-78
2023/01/08 08:00:56;;;;;;;3.25;1.73;;;8.20;99.90;;;;;;5076905;28;20135;-78
2023/01/08 08:03:23;;;;;;;3.78;2.10;;;8.20;99.90;;;;;;5076953;28;20527;-78
2023/01/08 08:05:49;;;;;;;4.05;2.53;;;8.20;99.90;;;;;;5077442;28;20051;-78
2023/01/08 08:08:15;;;;;;;3.75;3.00;;;8.20;99.90;;;;;;5059094;28;20119;-77
2023/01/08 08:10:42;;;;;;;4.38;2.58;;;8.20;99.90;;;;;;5076918;28;20044;-78
2023/01/08 08:13:08;;;;;;;4.30;2.60;;;8.10;99.90;;;;;;5076980;28;20207;-78
2023/01/08 08:15:35;;;;;;;7.00;2.58;;;8.20;99.90;;;;;;5075521;28;20139;-78
2023/01/08 08:18:01;;;;;;;6.80;3.13;;;8.10;99.90;;;;;;5076931;28;20518;-77
2023/01/08 08:20:27;;;;;;;6.15;2.67;;;8.10;99.90;;;;;;5076523;28;20048;-78
2023/01/08 08:23:02;;;;;;;4.50;2.55;;;8.20;99.90;;;;;;5076649;28;20040;-77
2023/01/08 08:25:28;;;;;;;6.70;3.33;;;8.10;99.90;;;;;;5076634;28;20036;-77
2023/01/08 08:27:58;;;;;;;6.35;2.97;;;8.10;99.90;;;;;;5076605;28;20378;-78
2023/01/08 08:30:25;;;;;;;6.18;3.08;;;8.10;99.90;;;;;;5076478;28;20052;-78
2023/01/08 08:32:51;;;;;;;8.73;2.50;;;8.10;99.90;;;;;;5076465;28;20058;-78
2023/01/08 08:35:17;;;;;;;6.53;2.30;;;8.10;99.90;;;;;;5076327;28;20420;-78
2023/01/08 08:37:43;;;;;;;9.55;2.90;;;8.10;99.90;;;;;;5076772;28;20048;-78
2023/01/08 08:40:09;;;;;;;4.53;2.67;;;8.10;99.90;;;;;;5075338;28;20448;-77
2023/01/08 08:42:34;;;;;;;5.40;2.78;;;8.10;99.90;;;;;;5058385;28;20046;-78
2023/01/08 08:45:00;;;;;;;4.50;2.30;;;8.10;99.90;;;;;;5058362;28;20040;-78
2023/01/08 08:47:26;;;;;;;4.45;2.03;;;8.10;99.90;;;;;;5076055;28;20044;-78
2023/01/08 08:49:52;;;;;;;7.10;3.05;;;8.20;99.90;;;;;;5076120;28;20437;-78
2023/01/08 08:52:17;;;;;;;5.10;2.53;;;8.10;99.90;;;;;;5076086;28;20130;-78
2023/01/08 08:54:43;;;;;;;5.13;2.25;;;8.20;99.90;;;;;;5058347;28;20076;-78
2023/01/08 08:57:09;;;;;;;7.30;2.88;;;8.20;99.90;;;;;;5076797;28;20119;-80
2023/01/08 08:59:35;;;;;;;4.28;2.10;;;8.20;99.90;;;;;;5076028;28;20047;-77
2023/01/08 09:02:02;;;;;;;8.88;2.97;;;8.20;99.90;;;;;;5075853;28;20070;-78
2023/01/08 09:04:32;;;;;;;4.10;2.83;;;8.20;99.90;;;;;;5075797;28;20044;-78
2023/01/08 09:07:01;;;;;;;2.95;1.92;;;8.30;99.90;;;;;;5076107;28;20044;-77
2023/01/08 09:09:26;;;;;;;3.33;2.15;;;8.30;99.90;;;;;;5076480;28;20037;-76
2023/01/08 09:11:52;;;;;;;4.18;2.25;;;8.30;99.90;;;;;;5076613;28;20596;-77
2023/01/08 09:14:19;;;;;;;4.55;2.05;;;8.40;99.90;;;;;;5076692;28;20051;-76
2023/01/08 09:16:54;;;;;;;2.63;1.90;;;8.40;99.90;;;;;;5076987;28;20037;-80
2023/01/08 09:19:33;;;;;;;5.88;2.15;;;8.40;99.90;;;;;;5046814;28;20044;-78
2023/01/08 09:22:01;;;;;;;2.42;2.17;;;8.40;99.90;;;;;;5075706;28;20047;-79
2023/01/08 09:24:32;;;;;;;3.78;1.98;;;8.40;99.90;;;;;;5058587;28;20040;-80
2023/01/08 09:26:58;;;;;;;2.05;1.65;;;8.50;99.90;;;;;;5075910;28;20044;-81
2023/01/08 09:29:24;;;;;;;4.55;2.13;;;8.50;99.90;;;;;;5075394;28;20376;-78
2023/01/08 09:31:50;;;;;;;2.92;1.80;;;8.50;99.90;;;;;;5058427;28;20056;-78
2023/01/08 09:34:16;;;;;;;2.17;1.58;;;8.50;99.90;;;;;;5075549;28;20036;-77
2023/01/08 09:36:41;;;;;;;2.25;1.88;;;8.60;99.90;;;;;;5074771;28;20066;-73
2023/01/08 09:39:09;;;;;;;4.22;1.80;;;8.60;99.90;;;;;;5074593;28;20094;-77
2023/01/08 09:41:42;;;;;;;6.55;2.10;;;8.60;99.90;;;;;;5057358;28;20127;-78
2023/01/08 09:44:10;;;;;;;;;;;8.60;99.90;;;;;;5075697;28;20356;-79
2023/01/08 09:46:36;;;;;;;4.80;1.95;;;8.60;99.90;;;;;;5075636;28;19920;-79
2023/01/08 09:49:05;;;;;;;4.13;2.53;;;8.70;99.90;;;;;;5074758;28;20444;-79
2023/01/08 09:51:36;;;;;;;3.88;2.35;;;8.70;99.90;;;;;;5057571;28;20056;-76
2023/01/08 09:54:04;;;;;;;3.78;1.73;;;8.70;99.90;;;;;;5075061;28;20040;-76
2023/01/08 09:56:33;;;;;;;5.15;2.28;;;8.70;99.90;;;;;;5075191;28;20428;-75
2023/01/08 09:59:02;;;;;;;9.20;2.33;;;8.80;99.90;;;;;;5057167;28;20040;-75
2023/01/08 10:01:39;;;;;;;2.95;1.63;;;8.80;99.90;;;;;;5074733;28;20040;-76
2023/01/08 10:04:16;;;;;;;4.28;2.10;;;8.80;99.90;;;;;;5074492;28;20158;-75
2023/01/08 10:06:53;;;;;;;5.75;2.40;;;8.90;99.90;;;;;;5073994;28;20049;-76
2023/01/08 10:09:24;;;;;;;3.83;2.17;;;8.90;99.90;;;;;;5074791;28;20062;-76
2023/01/08 10:11:52;;;;;;;3.30;2.00;;;8.90;99.90;;;;;;5075397;28;20381;-76
2023/01/08 10:14:29;;;;;;;5.35;2.03;;;8.90;99.90;;;;;;5074434;28;20048;-76
2023/01/08 10:17:01;;;;;;;5.18;1.80;;;8.90;99.90;;;;;;5056759;28;20044;-76
2023/01/08 10:19:26;;;;;;;8.07;2.05;;;9.00;99.90;;;;;;5074750;28;20127;-77
2023/01/08 10:21:53;;;;;;;5.82;1.40;;;9.00;99.90;;;;;;5073490;28;20469;-76
2023/01/08 10:24:38;;;;;;;6.38;2.03;;;9.00;99.90;;;;;;5074609;28;20059;-77
2023/01/08 10:27:24;;;;;;;4.68;1.77;;;9.00;99.90;;;;;;5074484;28;20044;-78
2023/01/08 10:29:50;;;;;;;4.88;2.13;;;9.10;99.90;;;;;;5073520;28;20052;-75
2023/01/08 10:32:30;;;;;;;5.22;1.40;;;9.10;99.90;;;;;;5075547;28;20048;-77
2023/01/08 10:34:57;;;;;;;5.28;2.13;;;9.20;99.90;;;;;;5074355;28;20100;-76
2023/01/08 10:37:30;;;;;;;3.85;2.28;;;9.20;99.90;;;;;;5074117;28;20040;-76
2023/01/08 10:40:17;;;;;;;4.38;1.88;;;9.20;99.90;;;;;;5074174;28;20040;-76
2023/01/08 10:42:43;;;;;;;5.03;3.00;;;9.20;99.90;;;;;;5074254;28;20381;-76
2023/01/08 10:45:26;;;;;;;3.42;2.38;;;9.30;99.90;;;;;;5074804;28;20040;-77
2023/01/08 10:47:57;;;;;;;9.23;2.78;;;9.30;99.90;;;;;;5074583;28;20357;-76
2023/01/08 10:50:29;;;;;;;5.13;2.05;;;9.30;99.90;;;;;;5073974;28;20098;-75
2023/01/08 10:52:58;;;;;;;4.33;1.97;;;9.40;99.90;;;;;;5074161;28;20045;-76
2023/01/08 10:55:36;;;;;;;4.05;2.22;;;9.30;99.90;;;;;;5074101;28;20052;-76
2023/01/08 10:58:07;;;;;;;8.48;1.90;;;9.40;99.90;;;;;;5073960;28;20041;-76
2023/01/08 11:00:35;;;;;;;10.07;2.08;;;9.40;99.90;;;;;;5056533;28;20089;-78
2023/01/08 11:03:06;;;;;;;4.07;2.25;;;9.40;99.90;;;;;;5073349;28;20040;-76
2023/01/08 11:05:37;;;;;;;4.15;1.98;;;9.40;99.90;;;;;;5074746;28;20040;-76
2023/01/08 11:08:12;;;;;;;3.83;2.75;;;9.40;99.90;;;;;;5074234;28;20120;-75
2023/01/08 11:10:37;;;;;;;5.95;2.50;;;9.50;99.90;;;;;;5074221;28;20111;-73
2023/01/08 11:13:06;;;;;;;3.38;1.60;;;9.50;99.90;;;;;;5074370;28;20063;-73
2023/01/08 11:15:35;;;;;;;5.70;2.80;;;9.50;99.90;;;;;;5073881;28;20045;-75
2023/01/08 11:18:13;;;;;;;6.60;2.38;;;9.50;99.90;;;;;;5073778;28;20052;-76
2023/01/08 11:20:40;;;;;;;3.88;2.08;;;9.50;99.90;;;;;;5073856;28;20048;-75
2023/01/08 11:23:13;;;;;;;10.23;2.45;;;9.50;99.90;;;;;;5073842;28;20203;-75
2023/01/08 11:25:43;;;;;;;8.10;2.53;;;9.60;99.90;;;;;;5073649;28;20044;-75
2023/01/08 11:28:14;;;;;;;7.20;3.17;;;9.60;99.90;;;;;;5073724;28;20032;-76
2023/01/08 11:30:49;;;;;;;7.80;2.58;;;9.60;99.90;;;;;;5073889;28;20400;-76
2023/01/08 11:33:20;;;;;;;6.78;2.22;;;9.60;99.90;;;;;;5074524;28;20063;-76
2023/01/08 11:35:51;;;;;;;6.38;2.67;;;9.60;99.90;;;;;;5056768;28;20373;-75
2023/01/08 11:38:17;;;;;;;5.53;1.90;;;9.70;99.90;;;;;;5055814;28;20053;-76
2023/01/08 11:40:50;;;;;;;11.32;2.50;;;9.70;99.90;;;;;;5074326;28;20040;-76
2023/01/08 11:43:33;;;;;;;8.00;2.47;;;9.70;99.90;;;;;;5073375;28;20124;-75
2023/01/08 11:46:02;;;;;;;;;;;9.80;99.90;;;;;;5073710;28;20479;-75
2023/01/08 11:48:49;;;;;;;6.15;2.25;;;9.80;99.90;;;;;;5073178;28;20019;-76
2023/01/08 11:51:56;;;;;;;6.60;2.88;;;9.80;99.90;;;;;;5073390;28;20056;-75
2023/01/08 11:54:49;;;;;;;10.20;2.00;;;9.90;99.90;;;;;;5035209;28;20055;-75
2023/01/08 11:57:35;;;;;;;8.50;2.67;;;9.80;99.90;;;;;;5074233;28;20052;-76
2023/01/08 12:00:15;;;;;;;9.90;2.85;;;9.80;99.90;;;;;;5073500;28;20032;-76
2023/01/08 12:02:46;;;;;;;5.57;2.35;;;9.80;99.90;;;;;;5073382;28;20043;-76
2023/01/08 12:05:45;;;;;;;8.35;3.55;;;9.80;99.90;;;;;;5056068;28;20045;-75
2023/01/08 12:08:22;;;;;;;12.38;2.50;;;9.90;99.90;;;;;;5073893;28;20462;-75
2023/01/08 12:11:13;;;;;;;5.90;2.70;;;9.90;99.90;;;;;;5073143;28;20080;-75
2023/01/08 12:14:02;;;;;;;5.00;2.65;;;9.90;99.90;;;;;;5073731;28;20044;-74
2023/01/08 12:16:39;;;;;;;4.47;2.47;;;9.90;99.90;;;;;;5065760;28;20045;-75
2023/01/08 12:19:11;;;;;;;7.28;2.65;;;9.80;99.90;;;;;;5076828;28;20044;-75
2023/01/08 12:22:15;;;;;;;8.68;3.03;;;9.80;99.90;;;;;;5076939;28;20056;-75
2023/01/08 12:24:59;;;;;;;;;;;9.80;99.90;;;;;;5077140;28;20050;-75
2023/01/08 12:27:42;;;;;;;4.97;2.50;;;9.70;99.90;;;;;;5076623;28;20003;-76
2023/01/08 12:30:11;;;;;;;;;;;9.80;99.90;;;;;;5077173;28;20072;-76
2023/01/08 12:32:49;;;;;;;9.73;3.22;;;9.80;99.90;;;;;;5076965;28;19920;-76
2023/01/08 12:35:37;;;;;;;7.10;2.45;;;9.80;99.90;;;;;;5076743;28;20087;-75
2023/01/08 12:38:29;;;;;;;5.00;2.28;;;9.80;99.90;;;;;;5076324;28;20480;-76
2023/01/08 12:40:59;;;;;;;9.60;2.35;;;9.80;99.90;;;;;;5077443;28;20037;-75
2023/01/08 12:43:40;;;;;;;5.25;2.35;;;9.80;99.90;;;;;;5077142;28;20119;-74
2023/01/08 12:46:10;;;;;;;8.93;2.72;;;9.80;99.90;;;;;;5076869;28;20055;-75
2023/01/08 12:48:38;;;;;;;5.57;3.78;;;9.80;99.90;;;;;;5075917;28;20048;-74
2023/01/08 12:51:07;;;;;;;5.35;3.03;;;9.80;99.90;;;;;;5076171;28;20098;-75
2023/01/08 12:54:14;;;;;;;8.38;2.95;;;9.90;99.90;;;;;;5076425;28;20103;-76
2023/01/08 12:56:51;;;;;;;6.85;2.65;;;9.90;99.90;;;;;;5058443;28;20044;-75
2023/01/08 12:59:38;;;;;;;11.90;2.45;;;9.90;99.90;;;;;;5076037;28;20041;-75
2023/01/08 13:02:16;;;;;;;3.63;2.15;;;9.90;99.90;;;;;;5076048;28;20102;-75
2023/01/08 13:04:46;;;;;;;10.35;2.50;;;10.00;99.90;;;;;;5058472;28;20105;-76
2023/01/08 13:07:19;;;;;;;5.10;3.28;;;9.90;99.90;;;;;;5058482;28;20048;-76
2023/01/08 13:09:45;;;;;;;8.40;2.30;;;10.00;99.90;;;;;;5076294;28;20075;-75
2023/01/08 13:12:14;;;;;;;3.47;2.70;;;9.90;99.90;;;;;;5075967;28;20079;-75